Aeroporto :
LOGIN :

Iscrizione | Disclaimer

   EN    FR    IT 

 










Sommario :    VFR   VFR Marginale   IFR   IFR Intensivo   IFR Molto Intensivo
Visibilità : 
Base nubi : 
>= 8 km
>= 3000ft
5 / 8 km
1000 / 3000 ft
1500m / 5 km
500 / 1000 ft
800 / 1500m
200 / 500 ft
< 800m
< 200 ft
Simboli :   Temporali  Nebbia  Neve Forte  Precipitazioni Forti  Vento > 20 kt
SIGMETs :   Varie  Temporali  Ghiacco  Turbolenza  Onda orograficha  Ceneri Vulcaniche






- Altitudine del aeroporto : 235 ft
- Codice IATA : BZG


EPBY - Bydgoszcz

ULTIMO METAR :
  • 220700Z 13014KT 9999 OVC009 05/03 Q1016

METARs OBSOLETI :
  • 220630Z 12014KT 090V150 9999 OVC010 05/03 Q1016
  • 220600Z 13014G25KT 9999 OVC010 06/04 Q1016
  • 220530Z 13015G26KT 100V160 9999 OVC010 06/04 Q1016
  • 220500Z 13014KT 100V160 9999 OVC010 06/04 Q1016
  • 220430Z 13015KT 9999 OVC010 06/04 Q1016

TAF TAF EPBY
Valido dal 22 a 06 ore il 23 a 06 ore UTC


220530Z 2206/2306 12014KT 9999 BKN012
TEMPO 2206/2208 12018G30KT -RA BKN008
BECMG 2208/2210 BKN016
TEMPO 2208/2218 12022G33KT
TEMPO 2210/2218 BKN012
TEMPO 2218/2306 12015G25KT



MetMap, La meteo Aeronautica in un colpo d'occhio ! - Copyright ORBIFLY Dicembre 2007 - Disclaimer

ORBIFLY MET'MAP TEAM :

Programmazione e sviluppo : Alexandra Zaïnal
Concezione e sviluppo : Baudouin d'Aumeries
Co-Programmazione e sviluppo : Marc-Olivier Méhu
Supporto tecnico e logistico : Manuel Goepfert
Aiuto per la traduzione : Arnaldo La Scala

Contatto : metmap@orbifly.com




FONTI E CREDITI :

   NOAA